sensor_id;sensor_type;location;lat;lon;timestamp;temperature;humidity
47604;DHT22;33326;51.116;6.900;2022-09-09T00:01:00;19.60;99.90
47604;DHT22;33326;51.116;6.900;2022-09-09T00:06:11;19.60;99.90
47604;DHT22;33326;51.116;6.900;2022-09-09T00:11:24;19.50;99.90
47604;DHT22;33326;51.116;6.900;2022-09-09T00:16:32;19.50;99.90
47604;DHT22;33326;51.116;6.900;2022-09-09T00:21:39;19.40;99.90
47604;DHT22;33326;51.116;6.900;2022-09-09T00:26:48;19.40;99.90
47604;DHT22;33326;51.116;6.900;2022-09-09T00:31:59;19.30;99.90
47604;DHT22;33326;51.116;6.900;2022-09-09T00:37:04;19.30;99.90
47604;DHT22;33326;51.116;6.900;2022-09-09T00:42:14;19.30;99.90
47604;DHT22;33326;51.116;6.900;2022-09-09T00:47:28;19.40;99.90
47604;DHT22;33326;51.116;6.900;2022-09-09T00:52:45;19.40;99.90
47604;DHT22;33326;51.116;6.900;2022-09-09T00:57:52;19.40;99.90
47604;DHT22;33326;51.116;6.900;2022-09-09T01:03:06;19.40;99.90
47604;DHT22;33326;51.116;6.900;2022-09-09T01:08:26;19.40;99.90
47604;DHT22;33326;51.116;6.900;2022-09-09T01:13:33;19.30;99.90
47604;DHT22;33326;51.116;6.900;2022-09-09T01:18:52;19.30;99.90
47604;DHT22;33326;51.116;6.900;2022-09-09T01:24:08;19.20;99.90
47604;DHT22;33326;51.116;6.900;2022-09-09T01:29:30;19.20;99.90
47604;DHT22;33326;51.116;6.900;2022-09-09T01:34:36;19.10;99.90
47604;DHT22;33326;51.116;6.900;2022-09-09T01:39:43;19.00;99.90
47604;DHT22;33326;51.116;6.900;2022-09-09T01:44:51;19.10;99.90
47604;DHT22;33326;51.116;6.900;2022-09-09T01:49:55;19.00;99.90
47604;DHT22;33326;51.116;6.900;2022-09-09T01:55:00;19.10;99.90
47604;DHT22;33326;51.116;6.900;2022-09-09T02:00:11;19.20;99.90
47604;DHT22;33326;51.116;6.900;2022-09-09T02:05:22;19.20;99.90
47604;DHT22;33326;51.116;6.900;2022-09-09T02:10:32;19.20;99.90
47604;DHT22;33326;51.116;6.900;2022-09-09T02:15:53;19.10;99.90
47604;DHT22;33326;51.116;6.900;2022-09-09T02:20:58;19.10;99.90
47604;DHT22;33326;51.116;6.900;2022-09-09T02:26:02;19.00;99.90
47604;DHT22;33326;51.116;6.900;2022-09-09T02:31:07;19.00;99.90
47604;DHT22;33326;51.116;6.900;2022-09-09T02:36:15;19.00;99.90
47604;DHT22;33326;51.116;6.900;2022-09-09T02:41:20;18.90;99.90
47604;DHT22;33326;51.116;6.900;2022-09-09T02:46:40;18.90;99.90
47604;DHT22;33326;51.116;6.900;2022-09-09T02:51:53;18.90;99.90
47604;DHT22;33326;51.116;6.900;2022-09-09T02:57:01;18.90;99.90
47604;DHT22;33326;51.116;6.900;2022-09-09T03:02:11;18.80;99.90
47604;DHT22;33326;51.116;6.900;2022-09-09T03:07:14;18.90;99.90
47604;DHT22;33326;51.116;6.900;2022-09-09T03:12:19;18.90;99.90
47604;DHT22;33326;51.116;6.900;2022-09-09T03:17:24;18.90;99.90
47604;DHT22;33326;51.116;6.900;2022-09-09T03:22:29;19.00;99.90
47604;DHT22;33326;51.116;6.900;2022-09-09T03:27:34;18.90;99.90
47604;DHT22;33326;51.116;6.900;2022-09-09T03:32:39;19.00;99.90
47604;DHT22;33326;51.116;6.900;2022-09-09T03:37:41;19.00;99.90
47604;DHT22;33326;51.116;6.900;2022-09-09T03:42:45;18.90;99.90
47604;DHT22;33326;51.116;6.900;2022-09-09T03:47:50;18.90;99.90
47604;DHT22;33326;51.116;6.900;2022-09-09T03:52:52;18.90;99.90
47604;DHT22;33326;51.116;6.900;2022-09-09T03:57:56;18.90;99.90
47604;DHT22;33326;51.116;6.900;2022-09-09T04:02:59;18.90;99.90
47604;DHT22;33326;51.116;6.900;2022-09-09T04:08:01;18.80;99.90
47604;DHT22;33326;51.116;6.900;2022-09-09T04:13:05;18.80;99.90
47604;DHT22;33326;51.116;6.900;2022-09-09T04:18:09;18.80;99.90
47604;DHT22;33326;51.116;6.900;2022-09-09T04:23:12;18.80;99.90
47604;DHT22;33326;51.116;6.900;2022-09-09T04:28:15;18.90;99.90
47604;DHT22;33326;51.116;6.900;2022-09-09T04:33:20;18.80;99.90
47604;DHT22;33326;51.116;6.900;2022-09-09T04:38:24;18.80;99.90
47604;DHT22;33326;51.116;6.900;2022-09-09T04:43:27;18.80;99.90
47604;DHT22;33326;51.116;6.900;2022-09-09T04:48:33;18.80;99.90
47604;DHT22;33326;51.116;6.900;2022-09-09T04:53:37;19.00;99.90
47604;DHT22;33326;51.116;6.900;2022-09-09T04:58:41;18.80;99.90
47604;DHT22;33326;51.116;6.900;2022-09-09T05:03:46;18.80;99.90
47604;DHT22;33326;51.116;6.900;2022-09-09T05:08:52;18.80;99.90
47604;DHT22;33326;51.116;6.900;2022-09-09T05:13:58;18.80;99.90
47604;DHT22;33326;51.116;6.900;2022-09-09T05:19:04;18.80;99.90
47604;DHT22;33326;51.116;6.900;2022-09-09T05:24:19;18.90;99.90
47604;DHT22;33326;51.116;6.900;2022-09-09T05:29:23;18.90;99.90
47604;DHT22;33326;51.116;6.900;2022-09-09T05:34:27;19.00;99.90
47604;DHT22;33326;51.116;6.900;2022-09-09T05:39:30;19.00;99.90
47604;DHT22;33326;51.116;6.900;2022-09-09T05:44:33;18.90;99.90
47604;DHT22;33326;51.116;6.900;2022-09-09T05:49:37;18.90;99.90
47604;DHT22;33326;51.116;6.900;2022-09-09T05:54:39;18.90;99.90
47604;DHT22;33326;51.116;6.900;2022-09-09T05:59:43;18.90;99.90
47604;DHT22;33326;51.116;6.900;2022-09-09T06:04:46;18.80;99.90
47604;DHT22;33326;51.116;6.900;2022-09-09T06:09:48;18.90;99.90
47604;DHT22;33326;51.116;6.900;2022-09-09T06:14:52;19.00;99.90
47604;DHT22;33326;51.116;6.900;2022-09-09T06:19:55;19.00;99.90
47604;DHT22;33326;51.116;6.900;2022-09-09T06:24:57;19.00;99.90
47604;DHT22;33326;51.116;6.900;2022-09-09T06:30:03;19.00;99.90
47604;DHT22;33326;51.116;6.900;2022-09-09T06:35:16;19.00;99.90
47604;DHT22;33326;51.116;6.900;2022-09-09T06:40:18;19.00;99.90
47604;DHT22;33326;51.116;6.900;2022-09-09T06:45:20;19.00;99.90
47604;DHT22;33326;51.116;6.900;2022-09-09T06:50:30;18.90;99.90
47604;DHT22;33326;51.116;6.900;2022-09-09T06:55:32;19.00;99.90
47604;DHT22;33326;51.116;6.900;2022-09-09T07:00:34;19.20;99.90
47604;DHT22;33326;51.116;6.900;2022-09-09T07:05:40;19.20;99.90
47604;DHT22;33326;51.116;6.900;2022-09-09T07:10:42;19.10;99.90
47604;DHT22;33326;51.116;6.900;2022-09-09T07:15:45;19.20;99.90
47604;DHT22;33326;51.116;6.900;2022-09-09T07:20:54;19.50;99.90
47604;DHT22;33326;51.116;6.900;2022-09-09T07:25:59;19.60;99.90
47604;DHT22;33326;51.116;6.900;2022-09-09T07:31:02;19.60;99.90
47604;DHT22;33326;51.116;6.900;2022-09-09T07:36:09;19.60;99.90
47604;DHT22;33326;51.116;6.900;2022-09-09T07:41:15;19.80;99.90
47604;DHT22;33326;51.116;6.900;2022-09-09T07:46:19;19.90;99.90
47604;DHT22;33326;51.116;6.900;2022-09-09T07:51:25;20.10;99.90
47604;DHT22;33326;51.116;6.900;2022-09-09T07:56:29;20.50;99.90
47604;DHT22;33326;51.116;6.900;2022-09-09T08:01:34;20.50;99.90
47604;DHT22;33326;51.116;6.900;2022-09-09T08:06:43;20.40;99.90
47604;DHT22;33326;51.116;6.900;2022-09-09T08:11:48;20.30;99.90
47604;DHT22;33326;51.116;6.900;2022-09-09T08:16:52;20.20;99.90
47604;DHT22;33326;51.116;6.900;2022-09-09T08:21:58;20.20;99.90
47604;DHT22;33326;51.116;6.900;2022-09-09T08:27:03;20.20;99.90
47604;DHT22;33326;51.116;6.900;2022-09-09T08:32:06;20.20;99.90
47604;DHT22;33326;51.116;6.900;2022-09-09T08:37:12;20.40;99.90
47604;DHT22;33326;51.116;6.900;2022-09-09T08:42:35;20.50;99.90
47604;DHT22;33326;51.116;6.900;2022-09-09T08:47:50;20.60;99.90
47604;DHT22;33326;51.116;6.900;2022-09-09T08:53:01;20.60;99.90
47604;DHT22;33326;51.116;6.900;2022-09-09T08:58:12;20.50;99.90
47604;DHT22;33326;51.116;6.900;2022-09-09T09:03:23;20.70;99.90
47604;DHT22;33326;51.116;6.900;2022-09-09T09:08:35;20.90;99.90
47604;DHT22;33326;51.116;6.900;2022-09-09T09:13:45;21.10;99.90
47604;DHT22;33326;51.116;6.900;2022-09-09T09:18:50;21.10;99.90
47604;DHT22;33326;51.116;6.900;2022-09-09T09:23:57;21.00;99.90
47604;DHT22;33326;51.116;6.900;2022-09-09T09:29:03;20.90;99.90
47604;DHT22;33326;51.116;6.900;2022-09-09T09:34:10;20.80;99.50
47604;DHT22;33326;51.116;6.900;2022-09-09T09:39:24;20.60;99.30
47604;DHT22;33326;51.116;6.900;2022-09-09T09:44:30;20.50;99.10
47604;DHT22;33326;51.116;6.900;2022-09-09T09:49:52;20.70;99.60
47604;DHT22;33326;51.116;6.900;2022-09-09T09:54:57;20.90;99.90
47604;DHT22;33326;51.116;6.900;2022-09-09T10:00:03;21.00;99.90
47604;DHT22;33326;51.116;6.900;2022-09-09T10:05:17;21.10;99.30
47604;DHT22;33326;51.116;6.900;2022-09-09T10:10:28;21.20;99.40
47604;DHT22;33326;51.116;6.900;2022-09-09T10:15:41;21.30;99.90
47604;DHT22;33326;51.116;6.900;2022-09-09T10:20:49;21.90;99.10
47604;DHT22;33326;51.116;6.900;2022-09-09T10:26:08;21.90;99.00
47604;DHT22;33326;51.116;6.900;2022-09-09T10:31:18;22.20;98.60
47604;DHT22;33326;51.116;6.900;2022-09-09T10:36:24;22.80;97.50
47604;DHT22;33326;51.116;6.900;2022-09-09T10:41:42;22.60;97.00
47604;DHT22;33326;51.116;6.900;2022-09-09T10:46:55;22.30;96.70
47604;DHT22;33326;51.116;6.900;2022-09-09T10:52:01;22.30;96.40
47604;DHT22;33326;51.116;6.900;2022-09-09T10:57:17;22.40;97.00
47604;DHT22;33326;51.116;6.900;2022-09-09T11:02:26;22.10;96.70
47604;DHT22;33326;51.116;6.900;2022-09-09T11:07:34;22.00;97.20
47604;DHT22;33326;51.116;6.900;2022-09-09T11:12:41;21.90;97.80
47604;DHT22;33326;51.116;6.900;2022-09-09T11:17:47;22.00;98.00
47604;DHT22;33326;51.116;6.900;2022-09-09T11:22:53;22.10;98.50
47604;DHT22;33326;51.116;6.900;2022-09-09T11:28:07;22.10;98.80
47604;DHT22;33326;51.116;6.900;2022-09-09T11:33:46;21.90;99.40
47604;DHT22;33326;51.116;6.900;2022-09-09T11:38:52;21.60;99.90
47604;DHT22;33326;51.116;6.900;2022-09-09T11:43:56;21.60;99.90
47604;DHT22;33326;51.116;6.900;2022-09-09T11:48:59;22.00;99.90
47604;DHT22;33326;51.116;6.900;2022-09-09T11:54:29;22.00;99.90
47604;DHT22;33326;51.116;6.900;2022-09-09T11:59:27;22.00;99.90
47604;DHT22;33326;51.116;6.900;2022-09-09T12:04:37;21.80;98.90
47604;DHT22;33326;51.116;6.900;2022-09-09T12:09:45;21.50;98.90
47604;DHT22;33326;51.116;6.900;2022-09-09T12:14:58;21.40;99.70
47604;DHT22;33326;51.116;6.900;2022-09-09T12:20:06;21.30;99.90
47604;DHT22;33326;51.116;6.900;2022-09-09T12:25:18;21.40;99.90
47604;DHT22;33326;51.116;6.900;2022-09-09T12:30:29;21.80;99.60
47604;DHT22;33326;51.116;6.900;2022-09-09T12:35:33;22.00;99.20
47604;DHT22;33326;51.116;6.900;2022-09-09T12:40:35;22.30;99.00
47604;DHT22;33326;51.116;6.900;2022-09-09T12:45:40;22.80;98.20
47604;DHT22;33326;51.116;6.900;2022-09-09T12:50:45;23.30;97.80
47604;DHT22;33326;51.116;6.900;2022-09-09T12:55:50;23.00;97.60
47604;DHT22;33326;51.116;6.900;2022-09-09T13:00:55;22.20;99.90
47604;DHT22;33326;51.116;6.900;2022-09-09T13:06:12;21.00;99.90
47604;DHT22;33326;51.116;6.900;2022-09-09T13:11:17;20.70;99.90
47604;DHT22;33326;51.116;6.900;2022-09-09T13:16:25;23.80;99.90
47604;DHT22;33326;51.116;6.900;2022-09-09T13:21:33;24.00;99.90
47604;DHT22;33326;51.116;6.900;2022-09-09T13:26:35;23.00;99.90
47604;DHT22;33326;51.116;6.900;2022-09-09T13:31:41;22.40;99.90
47604;DHT22;33326;51.116;6.900;2022-09-09T13:36:48;21.90;99.90
47604;DHT22;33326;51.116;6.900;2022-09-09T13:41:50;23.00;99.90
47604;DHT22;33326;51.116;6.900;2022-09-09T13:47:04;24.30;99.90
47604;DHT22;33326;51.116;6.900;2022-09-09T13:52:10;24.90;99.90
47604;DHT22;33326;51.116;6.900;2022-09-09T13:57:15;25.20;99.20
47604;DHT22;33326;51.116;6.900;2022-09-09T14:02:20;24.80;96.70
47604;DHT22;33326;51.116;6.900;2022-09-09T14:07:23;25.90;97.90
47604;DHT22;33326;51.116;6.900;2022-09-09T14:12:26;25.40;97.60
47604;DHT22;33326;51.116;6.900;2022-09-09T14:17:29;25.00;96.50
47604;DHT22;33326;51.116;6.900;2022-09-09T14:22:31;24.40;97.00
47604;DHT22;33326;51.116;6.900;2022-09-09T14:27:34;23.60;98.30
47604;DHT22;33326;51.116;6.900;2022-09-09T14:32:41;25.90;95.50
47604;DHT22;33326;51.116;6.900;2022-09-09T14:37:43;24.60;95.50
47604;DHT22;33326;51.116;6.900;2022-09-09T14:42:45;23.40;98.50
47604;DHT22;33326;51.116;6.900;2022-09-09T14:47:49;23.00;99.90
47604;DHT22;33326;51.116;6.900;2022-09-09T14:52:51;22.60;99.90
47604;DHT22;33326;51.116;6.900;2022-09-09T14:57:54;22.40;99.90
47604;DHT22;33326;51.116;6.900;2022-09-09T15:02:57;22.40;99.90
47604;DHT22;33326;51.116;6.900;2022-09-09T15:07:59;22.50;99.90
47604;DHT22;33326;51.116;6.900;2022-09-09T15:13:01;22.40;99.90
47604;DHT22;33326;51.116;6.900;2022-09-09T15:18:04;21.30;99.90
47604;DHT22;33326;51.116;6.900;2022-09-09T15:23:06;21.40;99.90
47604;DHT22;33326;51.116;6.900;2022-09-09T15:28:09;22.00;99.90
47604;DHT22;33326;51.116;6.900;2022-09-09T15:33:14;21.80;99.90
47604;DHT22;33326;51.116;6.900;2022-09-09T15:38:16;21.70;99.90
47604;DHT22;33326;51.116;6.900;2022-09-09T15:43:20;21.70;99.90
47604;DHT22;33326;51.116;6.900;2022-09-09T15:48:30;21.60;99.90
47604;DHT22;33326;51.116;6.900;2022-09-09T15:53:32;21.50;99.90
47604;DHT22;33326;51.116;6.900;2022-09-09T15:58:35;21.50;99.90
47604;DHT22;33326;51.116;6.900;2022-09-09T16:03:40;22.20;99.90
47604;DHT22;33326;51.116;6.900;2022-09-09T16:08:44;22.80;99.90
47604;DHT22;33326;51.116;6.900;2022-09-09T16:13:48;22.70;99.90
47604;DHT22;33326;51.116;6.900;2022-09-09T16:18:53;22.40;99.90
47604;DHT22;33326;51.116;6.900;2022-09-09T16:23:58;22.10;99.90
47604;DHT22;33326;51.116;6.900;2022-09-09T16:29:01;21.80;99.90
47604;DHT22;33326;51.116;6.900;2022-09-09T16:34:06;21.30;99.90
47604;DHT22;33326;51.116;6.900;2022-09-09T16:39:10;21.00;99.90
47604;DHT22;33326;51.116;6.900;2022-09-09T16:44:14;20.90;99.90
47604;DHT22;33326;51.116;6.900;2022-09-09T16:49:19;20.80;99.90
47604;DHT22;33326;51.116;6.900;2022-09-09T16:54:21;20.50;99.90
47604;DHT22;33326;51.116;6.900;2022-09-09T16:59:25;20.30;99.90
47604;DHT22;33326;51.116;6.900;2022-09-09T17:04:29;20.30;99.90
47604;DHT22;33326;51.116;6.900;2022-09-09T17:09:32;20.50;99.90
47604;DHT22;33326;51.116;6.900;2022-09-09T17:14:34;20.50;99.90
47604;DHT22;33326;51.116;6.900;2022-09-09T17:19:38;20.50;99.90
47604;DHT22;33326;51.116;6.900;2022-09-09T17:24:39;20.50;99.90
47604;DHT22;33326;51.116;6.900;2022-09-09T17:29:41;20.30;99.90
47604;DHT22;33326;51.116;6.900;2022-09-09T17:34:46;20.10;99.90
47604;DHT22;33326;51.116;6.900;2022-09-09T17:39:48;20.20;99.90
47604;DHT22;33326;51.116;6.900;2022-09-09T17:44:50;20.20;99.90
47604;DHT22;33326;51.116;6.900;2022-09-09T17:49:54;20.10;99.90
47604;DHT22;33326;51.116;6.900;2022-09-09T17:54:56;20.10;99.90
47604;DHT22;33326;51.116;6.900;2022-09-09T17:59:59;19.80;99.90
47604;DHT22;33326;51.116;6.900;2022-09-09T18:05:07;19.80;99.90
47604;DHT22;33326;51.116;6.900;2022-09-09T18:10:12;19.70;99.90
47604;DHT22;33326;51.116;6.900;2022-09-09T18:15:14;19.50;99.90
47604;DHT22;33326;51.116;6.900;2022-09-09T18:20:17;19.40;99.90
47604;DHT22;33326;51.116;6.900;2022-09-09T18:25:19;19.40;99.90
47604;DHT22;33326;51.116;6.900;2022-09-09T18:30:21;19.40;99.90
47604;DHT22;33326;51.116;6.900;2022-09-09T18:35:24;19.30;99.90
47604;DHT22;33326;51.116;6.900;2022-09-09T18:40:29;19.50;99.90
47604;DHT22;33326;51.116;6.900;2022-09-09T18:45:34;19.50;99.90
47604;DHT22;33326;51.116;6.900;2022-09-09T18:50:38;19.30;99.90
47604;DHT22;33326;51.116;6.900;2022-09-09T18:55:43;19.20;99.90
47604;DHT22;33326;51.116;6.900;2022-09-09T19:00:45;19.20;99.90
47604;DHT22;33326;51.116;6.900;2022-09-09T19:05:49;19.00;99.90
47604;DHT22;33326;51.116;6.900;2022-09-09T19:10:51;19.10;99.90
47604;DHT22;33326;51.116;6.900;2022-09-09T19:15:54;19.10;99.90
47604;DHT22;33326;51.116;6.900;2022-09-09T19:21:08;19.00;99.90
47604;DHT22;33326;51.116;6.900;2022-09-09T19:26:10;19.00;99.90
47604;DHT22;33326;51.116;6.900;2022-09-09T19:31:17;18.90;99.90
47604;DHT22;33326;51.116;6.900;2022-09-09T19:36:22;19.00;99.90
47604;DHT22;33326;51.116;6.900;2022-09-09T19:41:26;19.00;99.90
47604;DHT22;33326;51.116;6.900;2022-09-09T19:46:29;19.00;99.90
47604;DHT22;33326;51.116;6.900;2022-09-09T19:51:33;19.00;99.90
47604;DHT22;33326;51.116;6.900;2022-09-09T19:56:37;19.00;99.90
47604;DHT22;33326;51.116;6.900;2022-09-09T20:01:41;18.90;99.90
47604;DHT22;33326;51.116;6.900;2022-09-09T20:06:47;18.60;99.90
47604;DHT22;33326;51.116;6.900;2022-09-09T20:11:49;18.60;99.90
47604;DHT22;33326;51.116;6.900;2022-09-09T20:16:51;18.50;99.90
47604;DHT22;33326;51.116;6.900;2022-09-09T20:21:55;18.40;99.90
47604;DHT22;33326;51.116;6.900;2022-09-09T20:26:58;18.50;99.90
47604;DHT22;33326;51.116;6.900;2022-09-09T20:32:00;18.60;99.90
47604;DHT22;33326;51.116;6.900;2022-09-09T20:37:04;18.70;99.90
47604;DHT22;33326;51.116;6.900;2022-09-09T20:42:06;18.70;99.90
47604;DHT22;33326;51.116;6.900;2022-09-09T20:47:08;18.70;99.90
47604;DHT22;33326;51.116;6.900;2022-09-09T20:52:11;18.70;99.90
47604;DHT22;33326;51.116;6.900;2022-09-09T20:57:14;18.60;99.90
47604;DHT22;33326;51.116;6.900;2022-09-09T21:02:21;18.40;99.90
47604;DHT22;33326;51.116;6.900;2022-09-09T21:07:25;18.40;99.90
47604;DHT22;33326;51.116;6.900;2022-09-09T21:12:27;18.40;99.90
47604;DHT22;33326;51.116;6.900;2022-09-09T21:17:30;18.40;99.90
47604;DHT22;33326;51.116;6.900;2022-09-09T21:22:34;18.20;99.90
47604;DHT22;33326;51.116;6.900;2022-09-09T21:27:36;18.20;99.90
47604;DHT22;33326;51.116;6.900;2022-09-09T21:32:38;18.10;99.90
47604;DHT22;33326;51.116;6.900;2022-09-09T21:37:41;18.00;99.90
47604;DHT22;33326;51.116;6.900;2022-09-09T21:42:43;18.00;99.90
47604;DHT22;33326;51.116;6.900;2022-09-09T21:47:46;17.90;99.90
47604;DHT22;33326;51.116;6.900;2022-09-09T21:52:50;18.00;99.90
47604;DHT22;33326;51.116;6.900;2022-09-09T21:57:52;18.00;99.90
47604;DHT22;33326;51.116;6.900;2022-09-09T22:02:54;18.10;99.90
47604;DHT22;33326;51.116;6.900;2022-09-09T22:07:58;18.20;99.90
47604;DHT22;33326;51.116;6.900;2022-09-09T22:13:00;18.30;99.90
47604;DHT22;33326;51.116;6.900;2022-09-09T22:18:03;18.40;99.90
47604;DHT22;33326;51.116;6.900;2022-09-09T22:23:07;18.40;99.90
47604;DHT22;33326;51.116;6.900;2022-09-09T22:28:10;18.30;99.90
47604;DHT22;33326;51.116;6.900;2022-09-09T22:33:12;18.40;99.90
47604;DHT22;33326;51.116;6.900;2022-09-09T22:38:15;18.20;99.90
47604;DHT22;33326;51.116;6.900;2022-09-09T22:43:20;18.10;99.90
47604;DHT22;33326;51.116;6.900;2022-09-09T22:48:22;18.00;99.90
47604;DHT22;33326;51.116;6.900;2022-09-09T22:53:26;18.10;99.90
47604;DHT22;33326;51.116;6.900;2022-09-09T22:58:30;18.00;99.90
47604;DHT22;33326;51.116;6.900;2022-09-09T23:03:33;17.90;99.90
47604;DHT22;33326;51.116;6.900;2022-09-09T23:08:37;17.90;99.90
47604;DHT22;33326;51.116;6.900;2022-09-09T23:13:41;17.90;99.90
47604;DHT22;33326;51.116;6.900;2022-09-09T23:18:43;17.90;99.90
47604;DHT22;33326;51.116;6.900;2022-09-09T23:23:47;17.90;99.90
47604;DHT22;33326;51.116;6.900;2022-09-09T23:28:50;17.80;99.90
47604;DHT22;33326;51.116;6.900;2022-09-09T23:33:52;17.90;99.90
47604;DHT22;33326;51.116;6.900;2022-09-09T23:38:57;17.90;99.90
47604;DHT22;33326;51.116;6.900;2022-09-09T23:43:59;17.90;99.90
47604;DHT22;33326;51.116;6.900;2022-09-09T23:49:02;18.00;99.90
47604;DHT22;33326;51.116;6.900;2022-09-09T23:54:06;18.00;99.90
47604;DHT22;33326;51.116;6.900;2022-09-09T23:59:10;18.00;99.90
